Flight Track Log - Related Links

Times and Time Zones

All times are in EDT time to prevent confusion due to time zone crossing. See the EJA929 flight status page for this flight to view local times or setup timezone preferences in your user account.

Time Position Orientation Groundspeed Altitude Reporting Facility
EDT Latitude Longitude Course Direction KTS MPH feet Rate Location/Type
Mon 02:00:53 PM 40.7492 -112.0383 257° West 234 269 8,300  Level Salt Lake Center
Mon 02:01:10 PM 40.7489 -112.0614 269° West 240 276 9,000 1,367 Climbing Salt Lake Center
Mon 02:02:12 PM 40.8044 -112.1419 312° West 317 365 10,100 1,694 Climbing Salt Lake Center
Mon 02:03:14 PM 40.8828 -112.2203 323° Northwest 347 399 12,500 2,419 Climbing Salt Lake Center
Mon 02:04:16 PM 40.9628 -112.3008 323° Northwest 356 410 15,100 2,323 Climbing Salt Lake Center
Mon 02:05:18 PM 41.0431 -112.3811 323° Northwest 359 413 17,300 1,887 Climbing Salt Lake Center
Mon 02:06:20 PM 41.1244 -112.4636 323° Northwest 364 419 19,000 1,306 Climbing Salt Lake Center
Mon 02:07:22 PM 41.2111 -112.5517 323° Northwest 392 451 20,000 484 Climbing Salt Lake Center
Mon 02:08:24 PM 41.3158 -112.6722 319° Northwest 415 478 20,000  Level Salt Lake Center
Mon 02:09:26 PM 41.3947 -112.7894 312° West 423 487 20,000  Level Salt Lake Center
Mon 02:10:28 PM 41.4714 -112.9069 311° West 422 486 20,000  Level Salt Lake Center
Mon 02:11:30 PM 41.5450 -113.0225 310° West 414 476 20,000  Level Salt Lake Center
Mon 02:12:32 PM 41.6206 -113.1367 312° West 413 475 20,000  Level Salt Lake Center
Mon 02:13:34 PM 41.6972 -113.2525 312° West 413 475 20,000  Level Salt Lake Center
Mon 02:14:36 PM 41.7872 -113.3908 311° West 413 475 20,000  Level Salt Lake Center
Mon 02:15:38 PM 41.8622 -113.5111 310° West 415 478 20,000  Level Salt Lake Center
Mon 02:16:40 PM 41.9406 -113.6306 311° West 423 487 20,000  Level Salt Lake Center
Mon 02:17:42 PM 42.0153 -113.7494 310° West 420 483 20,000  Level Salt Lake Center
Mon 02:18:44 PM 42.0908 -113.8692 310° West 418 481 20,000  Level Salt Lake Center
Mon 02:19:46 PM 42.1672 -113.9878 311° West 418 481 20,000  Level Salt Lake Center
Mon 02:20:48 PM 42.2783 -114.0992 323° Northwest 423 487 20,000  Level Salt Lake Center
Mon 02:21:50 PM 42.3936 -114.1197 352° North 426 490 20,000 -726 Level Salt Lake Center
Mon 02:22:52 PM 42.5131 -114.1358 354° North 420 483 18,500 -1,355 Descending Salt Lake Center
Mon 02:23:54 PM 42.6344 -114.1519 354° North 418 481 17,200 -1,902 Descending Salt Lake Center
Mon 02:24:55 PM 42.7483 -114.1664 355° North 400 460 14,600 -2,537 Descending Salt Lake Center
Mon 02:25:57 PM 42.8611 -114.1825 354° North 394 453 12,000 -1,742 Descending Salt Lake Center
Mon 02:26:59 PM 42.9597 -114.1942 355° North 378 435 11,000 -484 Descending Salt Lake Center
Mon 02:28:01 PM 43.0519 -114.2064 354° North 328 377 11,000  Level Salt Lake Center
Mon 02:29:03 PM 43.1475 -114.2194 354° North 328 377 11,000 -677 Level Salt Lake Center
Mon 02:30:05 PM 43.2203 -114.1911 16° North 310 357 9,600 -1,355 Descending Salt Lake Center
Mon 02:32:00 PM 43.4078 -114.2612 345° North  Level FlightAware Approximate
Mon 02:39:00 PM 43.5000 -114.2833 North  Level FlightAware Approximate
Mon 02:40:00 PM 43.5038 -114.2956 North  Level Estimated
Mon 02:41:00 PM 43.5038 -114.2956 North  Level Estimated

Login

Don't have an account? Register now (free) for customized features, flight alerts, and more!